sensor_id;sensor_type;location;lat;lon;timestamp;pressure;altitude;pressure_sealevel;temperature;humidity
59545;BME280;45368;55.002;-1.592;2023-04-26T00:00:56;101210.13;;;7.59;40.39
59545;BME280;45368;55.002;-1.592;2023-04-26T00:03:28;101212.63;;;5.66;40.91
59545;BME280;45368;55.002;-1.592;2023-04-26T00:05:55;101212.22;;;5.95;40.68
59545;BME280;45368;55.002;-1.592;2023-04-26T00:08:22;101208.43;;;6.02;39.67
59545;BME280;45368;55.002;-1.592;2023-04-26T00:10:51;101208.65;;;5.44;40.80
59545;BME280;45368;55.002;-1.592;2023-04-26T00:13:18;101207.27;;;6.18;40.39
59545;BME280;45368;55.002;-1.592;2023-04-26T00:15:46;101206.95;;;6.36;39.51
59545;BME280;45368;55.002;-1.592;2023-04-26T00:18:13;101206.40;;;6.01;40.16
59545;BME280;45368;55.002;-1.592;2023-04-26T00:20:40;101206.64;;;5.77;39.58
59545;BME280;45368;55.002;-1.592;2023-04-26T00:23:07;101207.43;;;5.72;39.70
59545;BME280;45368;55.002;-1.592;2023-04-26T00:25:34;101208.72;;;5.62;40.13
59545;BME280;45368;55.002;-1.592;2023-04-26T00:28:01;101206.72;;;5.72;39.70
59545;BME280;45368;55.002;-1.592;2023-04-26T00:30:29;101199.23;;;6.42;38.82
59545;BME280;45368;55.002;-1.592;2023-04-26T00:32:56;101199.87;;;5.65;40.26
59545;BME280;45368;55.002;-1.592;2023-04-26T00:35:23;101200.59;;;5.47;39.95
59545;BME280;45368;55.002;-1.592;2023-04-26T00:37:51;101199.57;;;6.14;40.00
59545;BME280;45368;55.002;-1.592;2023-04-26T00:40:19;101202.39;;;6.65;39.95
59545;BME280;45368;55.002;-1.592;2023-04-26T00:42:46;101199.09;;;8.26;38.08
59545;BME280;45368;55.002;-1.592;2023-04-26T00:45:13;101192.25;;;9.08;36.72
59545;BME280;45368;55.002;-1.592;2023-04-26T00:47:41;101198.42;;;7.48;37.62
59545;BME280;45368;55.002;-1.592;2023-04-26T00:50:09;101200.20;;;6.00;39.25
59545;BME280;45368;55.002;-1.592;2023-04-26T00:52:36;101198.62;;;5.91;40.43
59545;BME280;45368;55.002;-1.592;2023-04-26T00:55:05;101195.88;;;7.25;39.11
59545;BME280;45368;55.002;-1.592;2023-04-26T00:58:09;101192.89;;;7.06;40.01
59545;BME280;45368;55.002;-1.592;2023-04-26T01:24:50;101179.54;;;8.24;38.21
59545;BME280;45368;55.002;-1.592;2023-04-26T01:27:20;101177.07;;;8.58;38.44
59545;BME280;45368;55.002;-1.592;2023-04-26T01:29:47;101173.43;;;8.84;37.35
59545;BME280;45368;55.002;-1.592;2023-04-26T01:32:14;101168.88;;;8.96;37.12
59545;BME280;45368;55.002;-1.592;2023-04-26T01:34:41;101166.18;;;9.28;36.54
59545;BME280;45368;55.002;-1.592;2023-04-26T01:37:08;101163.31;;;9.58;36.55
59545;BME280;45368;55.002;-1.592;2023-04-26T01:39:35;101166.51;;;8.00;37.78
59545;BME280;45368;55.002;-1.592;2023-04-26T01:42:02;101160.79;;;8.77;37.48
59545;BME280;45368;55.002;-1.592;2023-04-26T01:44:30;101162.49;;;7.95;38.32
59545;BME280;45368;55.002;-1.592;2023-04-26T01:46:58;101158.22;;;8.76;37.24
59545;BME280;45368;55.002;-1.592;2023-04-26T01:49:25;101153.24;;;8.77;36.96
59545;BME280;45368;55.002;-1.592;2023-04-26T01:51:53;101153.34;;;8.96;37.15
59545;BME280;45368;55.002;-1.592;2023-04-26T01:55:10;101150.70;;;9.03;37.38
59545;BME280;45368;55.002;-1.592;2023-04-26T01:57:37;101144.12;;;8.63;37.73
59545;BME280;45368;55.002;-1.592;2023-04-26T02:00:06;101143.88;;;8.74;37.75
59545;BME280;45368;55.002;-1.592;2023-04-26T02:02:33;101138.16;;;8.91;37.60
59545;BME280;45368;55.002;-1.592;2023-04-26T02:05:01;101137.92;;;9.52;37.55
59545;BME280;45368;55.002;-1.592;2023-04-26T02:07:29;101136.90;;;9.25;37.70
59545;BME280;45368;55.002;-1.592;2023-04-26T02:09:57;101134.50;;;8.56;38.39
59545;BME280;45368;55.002;-1.592;2023-04-26T02:12:24;101136.37;;;8.16;38.85
59545;BME280;45368;55.002;-1.592;2023-04-26T02:14:51;101130.79;;;9.00;38.38
59545;BME280;45368;55.002;-1.592;2023-04-26T02:17:18;101131.98;;;9.00;38.28
59545;BME280;45368;55.002;-1.592;2023-04-26T02:19:45;101130.87;;;8.46;38.69
59545;BME280;45368;55.002;-1.592;2023-04-26T02:22:13;101131.54;;;8.83;38.12
59545;BME280;45368;55.002;-1.592;2023-04-26T02:24:40;101132.17;;;8.86;38.39
59545;BME280;45368;55.002;-1.592;2023-04-26T02:27:08;101132.07;;;8.16;39.16
59545;BME280;45368;55.002;-1.592;2023-04-26T02:29:35;101123.53;;;8.43;38.90
59545;BME280;45368;55.002;-1.592;2023-04-26T02:32:03;101120.38;;;8.32;39.15
59545;BME280;45368;55.002;-1.592;2023-04-26T02:34:30;101120.53;;;8.49;39.22
59545;BME280;45368;55.002;-1.592;2023-04-26T02:36:57;101119.46;;;8.51;39.11
59545;BME280;45368;55.002;-1.592;2023-04-26T02:39:24;101125.21;;;6.73;40.92
59545;BME280;45368;55.002;-1.592;2023-04-26T02:41:51;101126.69;;;6.78;41.07
59545;BME280;45368;55.002;-1.592;2023-04-26T02:44:18;101129.57;;;5.06;43.93
59545;BME280;45368;55.002;-1.592;2023-04-26T02:46:46;101127.68;;;4.74;44.45
59545;BME280;45368;55.002;-1.592;2023-04-26T02:49:13;101129.46;;;4.05;46.06
59545;BME280;45368;55.002;-1.592;2023-04-26T02:51:40;101124.14;;;4.03;46.43
59545;BME280;45368;55.002;-1.592;2023-04-26T02:54:08;101119.31;;;3.52;47.12
59545;BME280;45368;55.002;-1.592;2023-04-26T02:56:35;101125.47;;;3.33;48.33
59545;BME280;45368;55.002;-1.592;2023-04-26T02:59:02;101116.31;;;3.80;48.18
59545;BME280;45368;55.002;-1.592;2023-04-26T03:01:29;101113.49;;;3.83;47.64
59545;BME280;45368;55.002;-1.592;2023-04-26T03:03:56;101107.48;;;4.46;47.13
59545;BME280;45368;55.002;-1.592;2023-04-26T03:06:23;101107.00;;;4.04;47.77
59545;BME280;45368;55.002;-1.592;2023-04-26T03:08:50;101101.23;;;5.55;44.72
59545;BME280;45368;55.002;-1.592;2023-04-26T03:11:18;101098.46;;;5.07;45.18
59545;BME280;45368;55.002;-1.592;2023-04-26T03:13:45;101105.93;;;3.56;47.58
59545;BME280;45368;55.002;-1.592;2023-04-26T03:16:12;101102.09;;;3.64;47.90
59545;BME280;45368;55.002;-1.592;2023-04-26T03:18:39;101108.02;;;3.61;49.87
59545;BME280;45368;55.002;-1.592;2023-04-26T03:21:06;101109.18;;;2.52;51.04
59545;BME280;45368;55.002;-1.592;2023-04-26T03:23:33;101103.14;;;3.55;50.01
59545;BME280;45368;55.002;-1.592;2023-04-26T03:26:00;101097.45;;;3.28;49.33
59545;BME280;45368;55.002;-1.592;2023-04-26T03:28:27;101092.63;;;3.84;49.18
59545;BME280;45368;55.002;-1.592;2023-04-26T03:30:55;101092.28;;;3.39;49.39
59545;BME280;45368;55.002;-1.592;2023-04-26T03:33:29;101090.39;;;4.09;47.64
59545;BME280;45368;55.002;-1.592;2023-04-26T03:35:56;101086.40;;;3.64;49.22
59545;BME280;45368;55.002;-1.592;2023-04-26T03:38:23;101076.35;;;5.25;46.52
59545;BME280;45368;55.002;-1.592;2023-04-26T03:40:50;101077.22;;;4.78;46.60
59545;BME280;45368;55.002;-1.592;2023-04-26T03:43:17;101073.53;;;4.87;46.52
59545;BME280;45368;55.002;-1.592;2023-04-26T03:45:46;101071.24;;;6.23;44.93
59545;BME280;45368;55.002;-1.592;2023-04-26T03:48:13;101065.86;;;6.93;43.25
59545;BME280;45368;55.002;-1.592;2023-04-26T03:50:41;101066.98;;;5.31;45.10
59545;BME280;45368;55.002;-1.592;2023-04-26T03:53:08;101067.19;;;6.70;43.64
59545;BME280;45368;55.002;-1.592;2023-04-26T03:55:35;101065.08;;;6.56;43.38
59545;BME280;45368;55.002;-1.592;2023-04-26T03:58:03;101066.25;;;6.41;42.87
59545;BME280;45368;55.002;-1.592;2023-04-26T04:00:30;101069.18;;;6.49;43.87
59545;BME280;45368;55.002;-1.592;2023-04-26T04:02:57;101065.93;;;6.74;43.26
59545;BME280;45368;55.002;-1.592;2023-04-26T04:05:24;101066.51;;;7.42;42.35
59545;BME280;45368;55.002;-1.592;2023-04-26T04:07:51;101058.44;;;7.06;41.94
59545;BME280;45368;55.002;-1.592;2023-04-26T04:10:18;101061.43;;;7.99;41.30
59545;BME280;45368;55.002;-1.592;2023-04-26T04:12:45;101062.24;;;7.41;41.26
59545;BME280;45368;55.002;-1.592;2023-04-26T04:15:12;101058.68;;;7.67;41.06
59545;BME280;45368;55.002;-1.592;2023-04-26T04:17:45;101057.91;;;7.57;41.14
59545;BME280;45368;55.002;-1.592;2023-04-26T04:20:12;101058.26;;;7.82;41.34
59545;BME280;45368;55.002;-1.592;2023-04-26T04:22:40;101060.68;;;7.48;41.43
59545;BME280;45368;55.002;-1.592;2023-04-26T04:25:09;101058.35;;;7.69;41.47
59545;BME280;45368;55.002;-1.592;2023-04-26T04:27:36;101060.50;;;7.71;41.41
59545;BME280;45368;55.002;-1.592;2023-04-26T04:30:04;101066.52;;;7.42;41.66
59545;BME280;45368;55.002;-1.592;2023-04-26T04:32:32;101067.12;;;7.39;41.86
59545;BME280;45368;55.002;-1.592;2023-04-26T04:35:00;101064.08;;;5.71;43.73
59545;BME280;45368;55.002;-1.592;2023-04-26T04:37:27;101068.95;;;5.26;45.55
59545;BME280;45368;55.002;-1.592;2023-04-26T04:39:55;101066.54;;;6.30;44.13
59545;BME280;45368;55.002;-1.592;2023-04-26T04:42:22;101069.36;;;6.56;43.03
59545;BME280;45368;55.002;-1.592;2023-04-26T04:44:50;101066.87;;;6.77;43.04
59545;BME280;45368;55.002;-1.592;2023-04-26T04:47:17;101067.68;;;7.27;42.30
59545;BME280;45368;55.002;-1.592;2023-04-26T04:49:44;101069.63;;;7.39;42.08
59545;BME280;45368;55.002;-1.592;2023-04-26T04:52:12;101065.81;;;7.52;41.95
59545;BME280;45368;55.002;-1.592;2023-04-26T04:54:40;101067.84;;;7.69;41.77
59545;BME280;45368;55.002;-1.592;2023-04-26T04:57:08;101068.33;;;7.45;41.95
59545;BME280;45368;55.002;-1.592;2023-04-26T04:59:35;101072.43;;;7.13;42.05
59545;BME280;45368;55.002;-1.592;2023-04-26T05:02:02;101069.94;;;7.16;42.00
59545;BME280;45368;55.002;-1.592;2023-04-26T05:04:29;101075.00;;;5.67;44.42
59545;BME280;45368;55.002;-1.592;2023-04-26T05:06:56;101080.68;;;4.38;47.14
59545;BME280;45368;55.002;-1.592;2023-04-26T05:09:23;101079.11;;;3.52;48.62
59545;BME280;45368;55.002;-1.592;2023-04-26T05:11:50;101081.60;;;3.56;49.83
59545;BME280;45368;55.002;-1.592;2023-04-26T05:14:17;101083.00;;;3.55;50.46
59545;BME280;45368;55.002;-1.592;2023-04-26T05:16:44;101086.72;;;2.86;51.73
59545;BME280;45368;55.002;-1.592;2023-04-26T05:19:11;101085.50;;;2.90;51.60
59545;BME280;45368;55.002;-1.592;2023-04-26T05:21:38;101083.02;;;2.72;52.07
59545;BME280;45368;55.002;-1.592;2023-04-26T05:24:06;101079.24;;;3.76;50.42
59545;BME280;45368;55.002;-1.592;2023-04-26T05:26:34;101082.45;;;3.68;50.75
59545;BME280;45368;55.002;-1.592;2023-04-26T05:29:02;101087.48;;;3.28;51.63
59545;BME280;45368;55.002;-1.592;2023-04-26T05:31:29;101088.30;;;3.12;51.25
59545;BME280;45368;55.002;-1.592;2023-04-26T05:33:57;101084.32;;;3.19;50.98
59545;BME280;45368;55.002;-1.592;2023-04-26T05:36:24;101075.35;;;3.57;50.47
59545;BME280;45368;55.002;-1.592;2023-04-26T05:38:52;101082.58;;;3.32;50.57
59545;BME280;45368;55.002;-1.592;2023-04-26T05:41:20;101076.65;;;3.55;51.01
59545;BME280;45368;55.002;-1.592;2023-04-26T05:43:47;101075.92;;;3.91;48.97
59545;BME280;45368;55.002;-1.592;2023-04-26T05:46:14;101077.12;;;3.96;49.48
59545;BME280;45368;55.002;-1.592;2023-04-26T05:48:41;101077.73;;;3.42;50.46
59545;BME280;45368;55.002;-1.592;2023-04-26T05:51:08;101079.76;;;3.67;50.58
59545;BME280;45368;55.002;-1.592;2023-04-26T05:53:35;101080.06;;;4.51;49.12
59545;BME280;45368;55.002;-1.592;2023-04-26T05:56:03;101085.41;;;3.65;50.18
59545;BME280;45368;55.002;-1.592;2023-04-26T05:58:30;101090.32;;;3.29;50.81
59545;BME280;45368;55.002;-1.592;2023-04-26T06:00:57;101093.42;;;3.23;50.83
59545;BME280;45368;55.002;-1.592;2023-04-26T06:03:24;101091.52;;;3.01;51.43
59545;BME280;45368;55.002;-1.592;2023-04-26T06:05:51;101093.86;;;3.10;51.34
59545;BME280;45368;55.002;-1.592;2023-04-26T06:08:18;101091.69;;;3.29;51.07
59545;BME280;45368;55.002;-1.592;2023-04-26T06:10:46;101091.87;;;2.59;52.13
59545;BME280;45368;55.002;-1.592;2023-04-26T06:13:13;101089.97;;;3.80;50.66
59545;BME280;45368;55.002;-1.592;2023-04-26T06:15:46;101085.60;;;3.46;50.28
59545;BME280;45368;55.002;-1.592;2023-04-26T06:18:13;101080.80;;;3.27;49.52
59545;BME280;45368;55.002;-1.592;2023-04-26T06:22:13;101087.23;;;3.39;50.52
59545;BME280;45368;55.002;-1.592;2023-04-26T06:25:29;101086.44;;;2.76;50.25
59545;BME280;45368;55.002;-1.592;2023-04-26T06:28:01;101080.87;;;3.98;48.40
59545;BME280;45368;55.002;-1.592;2023-04-26T06:30:55;101077.14;;;4.51;48.06
59545;BME280;45368;55.002;-1.592;2023-04-26T06:33:31;101077.68;;;4.21;46.97
59545;BME280;45368;55.002;-1.592;2023-04-26T06:36:02;101084.76;;;3.87;47.70
59545;BME280;45368;55.002;-1.592;2023-04-26T06:39:08;101074.91;;;5.02;46.76
59545;BME280;45368;55.002;-1.592;2023-04-26T06:43:29;101082.10;;;4.31;48.33
59545;BME280;45368;55.002;-1.592;2023-04-26T06:45:56;101075.10;;;5.20;45.59
59545;BME280;45368;55.002;-1.592;2023-04-26T06:48:23;101075.25;;;5.82;44.75
59545;BME280;45368;55.002;-1.592;2023-04-26T06:50:51;101074.07;;;4.96;44.85
59545;BME280;45368;55.002;-1.592;2023-04-26T06:53:19;101073.32;;;5.20;44.88
59545;BME280;45368;55.002;-1.592;2023-04-26T06:55:46;101077.11;;;4.31;46.64
59545;BME280;45368;55.002;-1.592;2023-04-26T06:58:13;101079.00;;;4.88;46.48
59545;BME280;45368;55.002;-1.592;2023-04-26T07:00:40;101071.03;;;5.68;43.97
59545;BME280;45368;55.002;-1.592;2023-04-26T07:03:07;101072.38;;;5.95;43.51
59545;BME280;45368;55.002;-1.592;2023-04-26T07:05:34;101068.78;;;5.86;43.08
59545;BME280;45368;55.002;-1.592;2023-04-26T07:08:01;101073.87;;;6.05;43.27
59545;BME280;45368;55.002;-1.592;2023-04-26T07:10:34;101072.73;;;6.41;42.88
59545;BME280;45368;55.002;-1.592;2023-04-26T07:13:01;101072.05;;;6.95;41.57
59545;BME280;45368;55.002;-1.592;2023-04-26T07:15:29;101069.33;;;6.61;41.44
59545;BME280;45368;55.002;-1.592;2023-04-26T07:17:56;101071.26;;;6.08;42.68
59545;BME280;45368;55.002;-1.592;2023-04-26T07:20:23;101072.41;;;5.84;42.61
59545;BME280;45368;55.002;-1.592;2023-04-26T07:22:50;101074.01;;;4.95;44.90
59545;BME280;45368;55.002;-1.592;2023-04-26T07:25:29;101073.87;;;5.81;43.46
59545;BME280;45368;55.002;-1.592;2023-04-26T07:27:56;101072.08;;;5.82;42.90
59545;BME280;45368;55.002;-1.592;2023-04-26T07:30:25;101069.37;;;7.60;40.70
59545;BME280;45368;55.002;-1.592;2023-04-26T07:32:52;101061.16;;;8.17;39.86
59545;BME280;45368;55.002;-1.592;2023-04-26T07:35:19;101061.56;;;7.92;38.64
59545;BME280;45368;55.002;-1.592;2023-04-26T07:37:48;101067.35;;;7.25;39.44
59545;BME280;45368;55.002;-1.592;2023-04-26T07:40:15;101062.20;;;8.53;37.85
59545;BME280;45368;55.002;-1.592;2023-04-26T07:42:47;101059.06;;;8.93;37.11
59545;BME280;45368;55.002;-1.592;2023-04-26T07:45:15;101062.03;;;8.49;37.22
59545;BME280;45368;55.002;-1.592;2023-04-26T07:47:47;101062.32;;;8.35;38.23
59545;BME280;45368;55.002;-1.592;2023-04-26T07:50:14;101073.92;;;6.81;40.88
59545;BME280;45368;55.002;-1.592;2023-04-26T07:52:42;101070.87;;;7.18;40.45
59545;BME280;45368;55.002;-1.592;2023-04-26T07:55:10;101066.17;;;7.65;40.28
59545;BME280;45368;55.002;-1.592;2023-04-26T07:57:38;101070.29;;;6.83;40.92
59545;BME280;45368;55.002;-1.592;2023-04-26T08:00:06;101061.44;;;8.05;39.55
59545;BME280;45368;55.002;-1.592;2023-04-26T08:02:33;101066.03;;;7.32;40.54
59545;BME280;45368;55.002;-1.592;2023-04-26T08:05:00;101059.54;;;7.51;41.23
59545;BME280;45368;55.002;-1.592;2023-04-26T08:07:27;101057.75;;;7.89;40.87
59545;BME280;45368;55.002;-1.592;2023-04-26T08:09:54;101058.09;;;7.86;40.83
59545;BME280;45368;55.002;-1.592;2023-04-26T08:12:21;101057.57;;;8.09;40.97
59545;BME280;45368;55.002;-1.592;2023-04-26T08:14:47;101057.15;;;7.16;42.01
59545;BME280;45368;55.002;-1.592;2023-04-26T08:17:14;101047.88;;;9.19;39.35
59545;BME280;45368;55.002;-1.592;2023-04-26T08:19:42;101049.06;;;9.59;37.53
59545;BME280;45368;55.002;-1.592;2023-04-26T08:22:10;101047.62;;;8.30;38.84
59545;BME280;45368;55.002;-1.592;2023-04-26T08:24:37;101048.61;;;9.49;39.29
59545;BME280;45368;55.002;-1.592;2023-04-26T08:27:08;101041.63;;;9.77;37.74
59545;BME280;45368;55.002;-1.592;2023-04-26T08:29:34;101041.53;;;10.39;36.53
59545;BME280;45368;55.002;-1.592;2023-04-26T08:32:02;101041.54;;;10.28;36.79
59545;BME280;45368;55.002;-1.592;2023-04-26T08:34:29;101044.15;;;9.49;38.65
59545;BME280;45368;55.002;-1.592;2023-04-26T08:36:56;101045.12;;;9.24;38.97
59545;BME280;45368;55.002;-1.592;2023-04-26T08:39:24;101044.58;;;9.56;37.69
59545;BME280;45368;55.002;-1.592;2023-04-26T08:41:53;101043.77;;;10.18;38.33
59545;BME280;45368;55.002;-1.592;2023-04-26T08:44:22;101045.95;;;8.86;39.28
59545;BME280;45368;55.002;-1.592;2023-04-26T08:46:56;101051.05;;;9.11;40.11
59545;BME280;45368;55.002;-1.592;2023-04-26T08:49:38;101047.97;;;8.86;40.94
59545;BME280;45368;55.002;-1.592;2023-04-26T08:52:08;101043.35;;;9.33;39.68
59545;BME280;45368;55.002;-1.592;2023-04-26T08:54:36;101049.05;;;7.84;41.61
59545;BME280;45368;55.002;-1.592;2023-04-26T08:57:05;101048.42;;;9.07;41.68
59545;BME280;45368;55.002;-1.592;2023-04-26T08:59:33;101046.57;;;9.08;40.81
59545;BME280;45368;55.002;-1.592;2023-04-26T09:02:03;101041.24;;;9.95;38.04
59545;BME280;45368;55.002;-1.592;2023-04-26T09:04:30;101037.72;;;10.15;38.90
59545;BME280;45368;55.002;-1.592;2023-04-26T09:07:01;101034.34;;;10.33;37.40
59545;BME280;45368;55.002;-1.592;2023-04-26T09:09:33;101040.28;;;9.52;39.69
59545;BME280;45368;55.002;-1.592;2023-04-26T09:12:01;101038.52;;;9.27;40.82
59545;BME280;45368;55.002;-1.592;2023-04-26T09:14:28;101034.56;;;10.01;39.16
59545;BME280;45368;55.002;-1.592;2023-04-26T09:16:56;101034.21;;;10.17;39.01
59545;BME280;45368;55.002;-1.592;2023-04-26T09:19:34;101031.70;;;10.48;38.35
59545;BME280;45368;55.002;-1.592;2023-04-26T09:22:02;101032.43;;;10.24;39.96
59545;BME280;45368;55.002;-1.592;2023-04-26T09:24:46;101026.35;;;9.84;39.98
59545;BME280;45368;55.002;-1.592;2023-04-26T09:27:14;101029.03;;;9.74;39.69
59545;BME280;45368;55.002;-1.592;2023-04-26T09:29:57;101026.86;;;10.02;39.84
59545;BME280;45368;55.002;-1.592;2023-04-26T09:32:24;101029.42;;;8.80;40.43
59545;BME280;45368;55.002;-1.592;2023-04-26T09:34:52;101018.89;;;10.13;39.30
59545;BME280;45368;55.002;-1.592;2023-04-26T09:37:19;101019.10;;;9.97;37.68
59545;BME280;45368;55.002;-1.592;2023-04-26T09:39:47;101018.55;;;11.08;36.95
59545;BME280;45368;55.002;-1.592;2023-04-26T09:42:16;101020.34;;;10.52;38.55
59545;BME280;45368;55.002;-1.592;2023-04-26T09:44:44;101014.22;;;10.94;36.05
59545;BME280;45368;55.002;-1.592;2023-04-26T09:47:11;101015.37;;;10.25;37.69
59545;BME280;45368;55.002;-1.592;2023-04-26T09:49:47;101006.57;;;11.79;35.72
59545;BME280;45368;55.002;-1.592;2023-04-26T09:52:16;101009.12;;;11.61;35.42
59545;BME280;45368;55.002;-1.592;2023-04-26T09:54:46;101002.95;;;11.61;36.21
59545;BME280;45368;55.002;-1.592;2023-04-26T09:57:14;100999.75;;;12.28;34.31
59545;BME280;45368;55.002;-1.592;2023-04-26T09:59:43;100998.41;;;12.18;34.23
59545;BME280;45368;55.002;-1.592;2023-04-26T10:02:17;100996.86;;;11.88;35.01
59545;BME280;45368;55.002;-1.592;2023-04-26T10:04:46;101005.84;;;10.56;35.86
59545;BME280;45368;55.002;-1.592;2023-04-26T10:07:14;101006.43;;;10.34;37.55
59545;BME280;45368;55.002;-1.592;2023-04-26T10:09:42;101006.34;;;10.87;36.65
59545;BME280;45368;55.002;-1.592;2023-04-26T10:12:10;101007.44;;;10.98;37.62
59545;BME280;45368;55.002;-1.592;2023-04-26T10:14:39;101003.33;;;11.07;35.68
59545;BME280;45368;55.002;-1.592;2023-04-26T10:17:06;101003.41;;;10.50;36.10
59545;BME280;45368;55.002;-1.592;2023-04-26T10:19:35;101001.73;;;11.15;35.01
59545;BME280;45368;55.002;-1.592;2023-04-26T10:22:05;101001.70;;;9.78;35.99
59545;BME280;45368;55.002;-1.592;2023-04-26T10:24:34;100998.37;;;10.66;34.71
59545;BME280;45368;55.002;-1.592;2023-04-26T10:27:02;100998.42;;;10.96;34.24
59545;BME280;45368;55.002;-1.592;2023-04-26T10:30:06;100998.95;;;11.06;33.52
59545;BME280;45368;55.002;-1.592;2023-04-26T10:33:10;100999.64;;;11.45;33.01
59545;BME280;45368;55.002;-1.592;2023-04-26T10:35:59;100999.68;;;9.48;35.50
59545;BME280;45368;55.002;-1.592;2023-04-26T10:38:27;100993.08;;;10.94;35.21
59545;BME280;45368;55.002;-1.592;2023-04-26T10:40:54;100990.45;;;10.76;36.44
59545;BME280;45368;55.002;-1.592;2023-04-26T10:43:29;100987.97;;;10.05;36.44
59545;BME280;45368;55.002;-1.592;2023-04-26T10:45:56;100982.48;;;11.37;32.88
59545;BME280;45368;55.002;-1.592;2023-04-26T10:48:30;100976.45;;;11.78;32.30
59545;BME280;45368;55.002;-1.592;2023-04-26T10:51:13;100979.65;;;11.07;32.58
59545;BME280;45368;55.002;-1.592;2023-04-26T10:54:13;100970.37;;;11.95;31.65
59545;BME280;45368;55.002;-1.592;2023-04-26T10:56:56;100963.19;;;13.37;29.47
59545;BME280;45368;55.002;-1.592;2023-04-26T10:59:23;100960.65;;;14.88;27.66
59545;BME280;45368;55.002;-1.592;2023-04-26T11:01:51;100957.75;;;14.28;27.12
59545;BME280;45368;55.002;-1.592;2023-04-26T11:04:19;100955.54;;;15.20;26.38
59545;BME280;45368;55.002;-1.592;2023-04-26T11:06:47;100957.69;;;13.18;27.17
59545;BME280;45368;55.002;-1.592;2023-04-26T11:09:32;100954.71;;;14.00;26.26
59545;BME280;45368;55.002;-1.592;2023-04-26T11:12:00;100948.51;;;16.04;24.75
59545;BME280;45368;55.002;-1.592;2023-04-26T11:14:28;100943.77;;;15.62;23.95
59545;BME280;45368;55.002;-1.592;2023-04-26T11:16:56;100936.96;;;16.84;23.42
59545;BME280;45368;55.002;-1.592;2023-04-26T11:19:23;100931.20;;;19.88;20.99
59545;BME280;45368;55.002;-1.592;2023-04-26T11:21:49;100931.84;;;19.86;21.22
59545;BME280;45368;55.002;-1.592;2023-04-26T11:24:24;100926.70;;;21.10;19.89
59545;BME280;45368;55.002;-1.592;2023-04-26T11:26:52;100921.68;;;21.46;19.24
59545;BME280;45368;55.002;-1.592;2023-04-26T11:29:20;100916.94;;;23.72;17.12
59545;BME280;45368;55.002;-1.592;2023-04-26T11:31:52;100930.28;;;20.59;19.00
59545;BME280;45368;55.002;-1.592;2023-04-26T11:34:21;100932.11;;;19.23;19.27
59545;BME280;45368;55.002;-1.592;2023-04-26T11:36:50;100938.83;;;15.86;21.90
59545;BME280;45368;55.002;-1.592;2023-04-26T11:39:23;100941.16;;;15.84;23.53
59545;BME280;45368;55.002;-1.592;2023-04-26T11:41:54;100935.63;;;17.50;21.90
59545;BME280;45368;55.002;-1.592;2023-04-26T11:44:22;100922.94;;;18.35;21.62
59545;BME280;45368;55.002;-1.592;2023-04-26T11:46:55;100920.25;;;15.29;25.33
59545;BME280;45368;55.002;-1.592;2023-04-26T11:49:23;100926.16;;;12.73;32.20
59545;BME280;45368;55.002;-1.592;2023-04-26T11:51:56;100957.87;;;11.41;34.78
59545;BME280;45368;55.002;-1.592;2023-04-26T11:54:26;100956.70;;;11.93;35.19
59545;BME280;45368;55.002;-1.592;2023-04-26T11:56:57;100962.52;;;11.65;35.73
59545;BME280;45368;55.002;-1.592;2023-04-26T11:59:31;100960.91;;;10.98;35.88
59545;BME280;45368;55.002;-1.592;2023-04-26T12:01:58;100967.88;;;10.61;37.39
59545;BME280;45368;55.002;-1.592;2023-04-26T12:04:26;100966.04;;;10.32;38.20
59545;BME280;45368;55.002;-1.592;2023-04-26T12:06:55;100966.10;;;10.75;38.06
59545;BME280;45368;55.002;-1.592;2023-04-26T12:09:23;100971.09;;;9.03;40.48
59545;BME280;45368;55.002;-1.592;2023-04-26T12:11:55;100973.21;;;8.78;41.89
59545;BME280;45368;55.002;-1.592;2023-04-26T12:14:22;100977.46;;;8.91;41.11
59545;BME280;45368;55.002;-1.592;2023-04-26T12:16:51;100976.52;;;9.22;41.30
59545;BME280;45368;55.002;-1.592;2023-04-26T12:19:22;100977.53;;;9.38;41.18
59545;BME280;45368;55.002;-1.592;2023-04-26T12:21:50;100980.46;;;9.20;41.89
59545;BME280;45368;55.002;-1.592;2023-04-26T12:24:26;100984.43;;;8.87;42.42
59545;BME280;45368;55.002;-1.592;2023-04-26T12:26:53;100979.83;;;8.89;41.64
59545;BME280;45368;55.002;-1.592;2023-04-26T12:29:20;100982.81;;;8.99;42.36
59545;BME280;45368;55.002;-1.592;2023-04-26T12:31:47;100983.96;;;8.51;43.60
59545;BME280;45368;55.002;-1.592;2023-04-26T12:34:14;100986.46;;;8.51;43.68
59545;BME280;45368;55.002;-1.592;2023-04-26T12:36:42;100980.98;;;8.58;43.73
59545;BME280;45368;55.002;-1.592;2023-04-26T12:39:09;100980.81;;;8.79;43.87
59545;BME280;45368;55.002;-1.592;2023-04-26T12:41:37;100986.51;;;9.10;43.29
59545;BME280;45368;55.002;-1.592;2023-04-26T12:44:05;100985.98;;;9.58;42.97
59545;BME280;45368;55.002;-1.592;2023-04-26T12:46:33;100987.56;;;9.78;41.14
59545;BME280;45368;55.002;-1.592;2023-04-26T12:49:00;100989.11;;;9.37;41.84
59545;BME280;45368;55.002;-1.592;2023-04-26T12:51:29;100987.05;;;9.98;41.59
59545;BME280;45368;55.002;-1.592;2023-04-26T12:53:57;100984.66;;;10.46;40.82
59545;BME280;45368;55.002;-1.592;2023-04-26T12:56:24;100987.61;;;10.14;40.55
59545;BME280;45368;55.002;-1.592;2023-04-26T12:58:51;100988.03;;;10.31;41.42
59545;BME280;45368;55.002;-1.592;2023-04-26T13:01:19;100989.04;;;10.19;40.51
59545;BME280;45368;55.002;-1.592;2023-04-26T13:03:46;100988.26;;;10.00;40.72
59545;BME280;45368;55.002;-1.592;2023-04-26T13:06:13;100990.64;;;9.67;41.21
59545;BME280;45368;55.002;-1.592;2023-04-26T13:08:41;100989.19;;;10.15;40.87
59545;BME280;45368;55.002;-1.592;2023-04-26T13:11:07;100992.04;;;10.08;41.97
59545;BME280;45368;55.002;-1.592;2023-04-26T13:13:34;100993.68;;;9.99;41.57
59545;BME280;45368;55.002;-1.592;2023-04-26T13:16:01;100992.98;;;10.04;40.34
59545;BME280;45368;55.002;-1.592;2023-04-26T13:18:28;100993.61;;;10.10;41.65
59545;BME280;45368;55.002;-1.592;2023-04-26T13:20:55;100994.23;;;9.82;41.76
59545;BME280;45368;55.002;-1.592;2023-04-26T13:23:23;100995.36;;;9.75;42.61
59545;BME280;45368;55.002;-1.592;2023-04-26T13:25:50;100994.26;;;9.31;42.83